Flight Track Log - Related Links

Times and Time Zones

All times are in EDT time to prevent confusion due to time zone crossing. See the AWE418 flight status page for this flight to view local times or setup timezone preferences in your user account.

Time Position Orientation Groundspeed Altitude Reporting Facility
EDT Latitude Longitude Course Direction KTS MPH feet Rate Location/Type
Sat 03:23:53 PM 33.4333 -112.0333 67° East 156 180 2,400  Level Phoenix TRACON
Sat 03:25:05 PM 33.4333 -112.1000 270° West 204 235 5,100 2,571 Climbing Phoenix TRACON
Sat 03:25:59 PM 33.4500 -112.1667 287° West 213 245 7,800 2,450 Climbing Phoenix TRACON
Sat 03:26:00 PM 33.5850 -111.5724 70° East  Level FlightAware Approximate
Sat 03:27:00 PM 33.6302 -111.4261 68° East  Level FlightAware Approximate
Sat 03:27:05 PM 33.5167 -112.1500 12° North 319 367 10,000  Level Phoenix TRACON
Sat 03:28:00 PM 33.6785 -111.2812 68° East  Level FlightAware Approximate
Sat 03:28:08 PM 33.5356 -112.0581 76° East 324 373 12,500  Level Albuquerque Center
Sat 03:29:00 PM 33.7288 -111.1371 67° East  Level FlightAware Approximate
Sat 03:29:09 PM 33.5581 -111.9425 77° East 357 411 15,300  Level Albuquerque Center
Sat 03:30:10 PM 33.5817 -111.8219 77° East 373 429 16,800 1,805 Climbing Albuquerque Center
Sat 03:31:12 PM 33.6131 -111.6631 77° East 411 473 19,000 1,805 Climbing Albuquerque Center
Sat 03:32:13 PM 33.6403 -111.5228 77° East 434 499 20,500 1,463 Climbing Albuquerque Center
Sat 03:33:15 PM 33.6689 -111.3686 77° East 474 545 22,000 1,122 Climbing Albuquerque Center
Sat 03:34:16 PM 33.7078 -111.2106 73° East 500 575 22,800 1,171 Climbing Albuquerque Center
Sat 03:35:18 PM 33.7653 -111.0517 66° East 521 600 24,400 1,415 Climbing Albuquerque Center
Sat 03:36:19 PM 33.8239 -110.8869 67° East 534 615 25,700 1,463 Climbing Albuquerque Center
Sat 03:37:21 PM 33.8939 -110.6864 67° East 540 621 27,400 1,415 Climbing Albuquerque Center
Sat 03:38:22 PM 33.9525 -110.5172 67° East 543 625 28,600 1,024 Climbing Albuquerque Center
Sat 03:39:24 PM 34.0058 -110.3692 66° East 550 633 29,500 1,220 Climbing Albuquerque Center
Sat 03:40:25 PM 34.0786 -110.1586 67° East 560 644 31,100 1,317 Climbing Albuquerque Center
Sat 03:41:27 PM 34.1425 -109.9725 67° East 565 650 32,200 1,512 Climbing Albuquerque Center
Sat 03:42:28 PM 34.1992 -109.8086 67° East 563 648 34,200 1,366 Climbing Albuquerque Center
Sat 03:43:30 PM 34.2533 -109.6475 68° East 550 633 35,000 390 Climbing Albuquerque Center
Sat 03:44:31 PM 34.3156 -109.4664 67° East 532 612 35,000  Level Albuquerque Center
Sat 03:45:33 PM 34.3694 -109.3092 67° East 532 612 35,000  Level Albuquerque Center
Sat 03:46:34 PM 34.4308 -109.1269 68° East 530 610 35,000 -49 Level Albuquerque Center
Sat 03:47:36 PM 34.4742 -108.9656 72° East 529 609 34,900  Descending Albuquerque Center
Sat 03:48:38 PM 34.5261 -108.7783 71° East 529 609 35,000 49 Climbing Albuquerque Center
Sat 03:49:39 PM 34.5708 -108.6153 72° East 529 609 35,000 49 Level Albuquerque Center
Sat 03:50:41 PM 34.6142 -108.4533 72° East 529 609 35,100  Climbing Albuquerque Center
Sat 03:51:42 PM 34.6631 -108.2706 72° East 521 600 35,000 -98 Descending Albuquerque Center
Sat 03:52:44 PM 34.7042 -108.1206 72° East 517 595 34,900  Descending Albuquerque Center
Sat 03:53:45 PM 34.7486 -107.9542 72° East 517 595 35,000 49 Climbing Albuquerque Center
Sat 03:54:47 PM 34.8022 -107.7500 72° East 533 613 35,000 49 Level Albuquerque Center
Sat 03:55:48 PM 34.8475 -107.5806 72° East 533 613 35,100  Climbing Albuquerque Center
Sat 03:56:50 PM 34.8944 -107.3986 72° East 532 612 35,000 -48 Descending Albuquerque Center
Sat 03:57:52 PM 34.9389 -107.2300 72° East 528 608 35,000  Level Albuquerque Center
Sat 03:58:53 PM 34.9808 -107.0625 73° East 519 597 35,000  Level Albuquerque Center
Sat 03:59:55 PM 35.0289 -106.8831 72° East 517 595 35,000 -49 Level Albuquerque Center
Sat 04:00:56 PM 35.0886 -106.7436 62° Northeast 517 595 34,900  Descending Albuquerque Center
Sat 04:01:58 PM 35.1803 -106.5781 56° Northeast 520 598 35,000  Climbing Albuquerque Center
Sat 04:03:00 PM 35.2536 -106.4506 55° Northeast 523 602 34,900  Descending Albuquerque Center
Sat 04:04:01 PM 35.3544 -106.2742 55° Northeast 526 605 35,000 49 Climbing Albuquerque Center
Sat 04:05:03 PM 35.4242 -106.1478 56° Northeast 521 600 35,000  Level Albuquerque Center
Sat 04:06:04 PM 35.5222 -105.9714 56° Northeast 521 600 35,000 49 Level Albuquerque Center
Sat 04:07:06 PM 35.5967 -105.8397 55° Northeast 529 609 35,100 677 Climbing Albuquerque Center
Sat 04:08:08 PM 35.6881 -105.6756 56° Northeast 524 603 36,400 927 Climbing Albuquerque Center
Sat 04:09:09 PM 35.7761 -105.5169 56° Northeast 524 603 37,000 293 Climbing Albuquerque Center
Sat 04:10:11 PM 35.8581 -105.3694 56° Northeast 518 596 37,000  Level Albuquerque Center
Sat 04:11:12 PM 35.9386 -105.2242 56° Northeast 508 585 37,000  Level Albuquerque Center
Sat 04:12:14 PM 36.0200 -105.0753 56° Northeast 511 588 37,000  Level Albuquerque Center
Sat 04:13:15 PM 36.1017 -104.9242 56° Northeast 520 598 37,000 49 Level Albuquerque Center
Sat 04:14:17 PM 36.1828 -104.7744 56° Northeast 520 598 37,100  Climbing Albuquerque Center
Sat 04:15:19 PM 36.2636 -104.6261 56° Northeast 517 595 37,000 -49 Descending Albuquerque Center
Sat 04:16:20 PM 36.3428 -104.4775 56° Northeast 514 592 37,000 -49 Level Albuquerque Center
Sat 04:17:22 PM 36.4228 -104.3275 56° Northeast 514 592 36,900  Descending Albuquerque Center
Sat 04:18:23 PM 36.5031 -104.1781 56° Northeast 514 592 37,000 49 Climbing Albuquerque Center
Sat 04:19:25 PM 36.5836 -104.0258 57° Northeast 516 594 37,000  Level Albuquerque Center
Sat 04:20:26 PM 36.6628 -103.8764 57° Northeast 516 594 37,000  Level Albuquerque Center
Sat 04:21:28 PM 36.7550 -103.7014 57° Northeast 514 592 37,000  Level Albuquerque Center
Sat 04:22:30 PM 36.8325 -103.5542 57° Northeast 508 585 37,000  Level Albuquerque Center
Sat 04:23:31 PM 36.9083 -103.4050 58° Northeast 506 582 37,000  Level Albuquerque Center
Sat 04:24:33 PM 36.9867 -103.2556 57° Northeast 506 582 37,000  Level Albuquerque Center
Sat 04:25:34 PM 37.0642 -103.1069 57° Northeast 506 582 37,000  Level Albuquerque Center
Sat 04:26:36 PM 37.1419 -102.9539 57° Northeast 509 586 37,000  Level Albuquerque Center
Sat 04:27:37 PM 37.2222 -102.7956 57° Northeast 515 593 37,000  Level Albuquerque Center
Sat 04:28:39 PM 37.2967 -102.6494 57° Northeast 517 595 37,000 48 Level Albuquerque Center
Sat 04:29:41 PM 37.3850 -102.4778 57° Northeast 518 596 37,100  Climbing Albuquerque Center
Sat 04:30:42 PM 37.4583 -102.3314 58° Northeast 518 596 37,000 -49 Descending Albuquerque Center
Sat 04:31:44 PM 37.5428 -102.1619 58° Northeast 516 594 37,000  Level Albuquerque Center
Sat 04:32:45 PM 37.6169 -102.0147 58° Northeast 516 594 37,000  Level Albuquerque Center
Sat 04:34:03 PM 37.7144 -101.8192 58° Northeast 516 594 37,000  Level Kansas City Center
Sat 04:35:05 PM 37.7994 -101.6469 58° Northeast 516 594 37,000  Level Kansas City Center
Sat 04:36:06 PM 37.8717 -101.4994 58° Northeast 516 594 37,000  Level Kansas City Center
Sat 04:37:08 PM 37.9453 -101.3506 58° Northeast 516 594 37,000  Level Kansas City Center
Sat 04:38:10 PM 38.0303 -101.1753 58° Northeast 516 594 37,000  Level Kansas City Center
Sat 04:39:12 PM 38.1039 -101.0222 59° Northeast 521 600 37,000  Level Kansas City Center
Sat 04:40:13 PM 38.1892 -100.8453 58° Northeast 521 600 37,000  Level Kansas City Center
Sat 04:41:15 PM 38.2611 -100.6942 59° Northeast 521 600 37,000  Level Kansas City Center
Sat 04:42:17 PM 38.3339 -100.5436 58° Northeast 521 600 37,000  Level Kansas City Center
Sat 04:43:18 PM 38.4169 -100.3686 59° Northeast 521 600 37,000  Level Kansas City Center
Sat 04:44:20 PM 38.4878 -100.2186 59° Northeast 520 598 37,000  Level Kansas City Center
Sat 04:45:22 PM 38.5692 -100.0433 59° Northeast 517 595 37,000  Level Kansas City Center
Sat 04:46:24 PM 38.6389 -99.8958 59° Northeast 512 589 37,000  Level Kansas City Center
Sat 04:47:25 PM 38.7089 -99.7444 59° Northeast 511 588 37,000  Level Kansas City Center
Sat 04:48:27 PM 38.7917 -99.5681 59° Northeast 512 589 37,000  Level Kansas City Center
Sat 04:49:29 PM 38.8631 -99.4122 59° Northeast 514 592 37,000  Level Kansas City Center
Sat 04:50:31 PM 38.9378 -99.2531 59° Northeast 516 594 37,000  Level Kansas City Center
Sat 04:51:32 PM 39.0111 -99.0922 60° Northeast 518 596 37,000  Level Kansas City Center
Sat 04:52:34 PM 39.0861 -98.9272 60° Northeast 518 596 37,000  Level Kansas City Center
Sat 04:53:36 PM 39.1564 -98.7717 60° Northeast 519 597 37,000  Level Kansas City Center
Sat 04:54:37 PM 39.2419 -98.5819 60° Northeast 519 597 37,000  Level Kansas City Center
Sat 04:55:39 PM 39.3136 -98.4208 60° Northeast 519 597 37,000  Level Kansas City Center
Sat 04:56:41 PM 39.3853 -98.2592 60° Northeast 519 597 37,000  Level Kansas City Center
Sat 04:57:43 PM 39.4606 -98.0917 60° Northeast 520 598 37,000  Level Kansas City Center
Sat 04:58:44 PM 39.5336 -97.9314 59° Northeast 520 598 37,000  Level Kansas City Center
Sat 04:59:46 PM 39.6203 -97.7472 59° Northeast 518 596 37,000  Level Kansas City Center
Sat 05:00:48 PM 39.6964 -97.5853 59° Northeast 518 596 37,000  Level Kansas City Center
Sat 05:01:50 PM 39.7714 -97.4247 59° Northeast 519 597 37,000  Level Kansas City Center
Sat 05:02:52 PM 39.8492 -97.2614 58° Northeast 527 606 37,000  Level Kansas City Center
Sat 05:03:53 PM 39.9258 -97.1003 58° Northeast 526 605 37,000  Level Kansas City Center
Sat 05:04:55 PM 39.9989 -96.9397 59° Northeast 521 600 37,000  Level Kansas City Center
Sat 05:05:57 PM 40.0858 -96.7531 59° Northeast 518 596 37,000  Level Kansas City Center
Sat 05:07:05 PM 40.1522 -96.6014 60° Northeast 518 596 37,000  Level Minneapolis Center
Sat 05:08:07 PM 40.2403 -96.4078 59° Northeast 518 596 37,000  Level Minneapolis Center
Sat 05:09:08 PM 40.3128 -96.2478 59° Northeast 517 595 37,000  Level Minneapolis Center
Sat 05:10:10 PM 40.3850 -96.0872 59° Northeast 516 594 37,000  Level Minneapolis Center
Sat 05:11:12 PM 40.4567 -95.9258 60° Northeast 516 594 37,000  Level Minneapolis Center
Sat 05:12:13 PM 40.5286 -95.7658 59° Northeast 516 594 37,000  Level Minneapolis Center
Sat 05:13:15 PM 40.5989 -95.6069 60° Northeast 512 589 37,000  Level Minneapolis Center
Sat 05:14:16 PM 40.6694 -95.4478 60° Northeast 510 587 37,000  Level Minneapolis Center
Sat 05:15:18 PM 40.7531 -95.2561 60° Northeast 509 586 37,000  Level Minneapolis Center
Sat 05:16:20 PM 40.8233 -95.0969 60° Northeast 507 583 37,000  Level Minneapolis Center
Sat 05:17:21 PM 40.8931 -94.9361 60° Northeast 507 583 37,000  Level Minneapolis Center
Sat 05:18:23 PM 40.9636 -94.7733 60° Northeast 507 583 37,000  Level Minneapolis Center
Sat 05:19:24 PM 41.0325 -94.6100 61° Northeast 508 585 37,000 49 Level Minneapolis Center
Sat 05:20:26 PM 41.1056 -94.4403 60° Northeast 511 588 37,100  Climbing Minneapolis Center
Sat 05:21:27 PM 41.1728 -94.2817 61° Northeast 511 588 37,000 -49 Descending Minneapolis Center
Sat 05:22:29 PM 41.2433 -94.1150 61° Northeast 511 588 37,000  Level Minneapolis Center
Sat 05:23:30 PM 41.3250 -93.9208 61° Northeast 507 583 37,000  Level Minneapolis Center
Sat 05:24:32 PM 41.3919 -93.7597 61° Northeast 506 582 37,000  Level Minneapolis Center
Sat 05:25:33 PM 41.4569 -93.5947 62° Northeast 505 581 37,000  Level Minneapolis Center
Sat 05:26:35 PM 41.5142 -93.4244 66° East 505 581 37,000  Level Minneapolis Center
Sat 05:27:36 PM 41.5731 -93.2547 65° Northeast 505 581 37,000  Level Minneapolis Center
Sat 05:28:37 PM 41.6311 -93.0839 66° East 505 581 37,000  Level Minneapolis Center
Sat 05:29:39 PM 41.6886 -92.9117 66° East 506 582 37,000  Level Minneapolis Center
Sat 05:30:40 PM 41.7578 -92.7092 65° Northeast 507 583 37,000  Level Minneapolis Center
Sat 05:31:34 PM 41.8019 -92.5694 67° East 510 587 37,000  Level Chicago Center
Sat 05:32:36 PM 41.8583 -92.3983 66° East 510 587 37,000  Level Chicago Center
Sat 05:33:38 PM 41.9158 -92.2258 66° East 509 586 37,000  Level Chicago Center
Sat 05:34:40 PM 41.9831 -92.0186 66° East 510 587 37,000  Level Chicago Center
Sat 05:35:42 PM 42.0392 -91.8469 66° East 509 586 37,000  Level Chicago Center
Sat 05:36:43 PM 42.0947 -91.6736 67° East 509 586 37,000  Level Chicago Center
Sat 05:37:45 PM 42.1514 -91.4997 66° East 512 589 37,000  Level Chicago Center
Sat 05:38:47 PM 42.2069 -91.3247 67° East 513 590 37,000  Level Chicago Center
Sat 05:39:49 PM 42.2733 -91.1128 67° East 514 592 37,000  Level Chicago Center
Sat 05:40:51 PM 42.3289 -90.9367 67° East 516 594 37,000  Level Chicago Center
Sat 05:41:52 PM 42.3839 -90.7603 67° East 516 594 37,000  Level Chicago Center
Sat 05:42:54 PM 42.4342 -90.5875 68° East 504 580 37,000  Level Chicago Center
Sat 05:43:56 PM 42.4883 -90.4119 67° East 507 583 37,000  Level Chicago Center
Sat 05:44:58 PM 42.5528 -90.2011 67° East 512 589 37,000  Level Chicago Center
Sat 05:46:00 PM 42.6069 -90.0244 67° East 513 590 37,000  Level Chicago Center
Sat 05:47:01 PM 42.6625 -89.8372 68° East 515 593 37,000  Level Chicago Center
Sat 05:48:03 PM 42.7183 -89.6550 67° East 525 604 37,000  Level Chicago Center
Sat 05:49:05 PM 42.7708 -89.4736 68° East 523 602 37,000  Level Chicago Center
Sat 05:50:07 PM 42.8258 -89.2967 67° East 514 592 37,000  Level Chicago Center
Sat 05:51:09 PM 42.8719 -89.0639 75° East 542 624 37,000  Level Chicago Center
Sat 05:52:11 PM 42.9069 -88.8761 76° East 519 597 37,000  Level Chicago Center
Sat 05:53:12 PM 42.9417 -88.6775 77° East 534 615 37,000  Level Chicago Center
Sat 05:54:14 PM 42.9758 -88.4856 76° East 529 609 37,000  Level Chicago Center
Sat 05:55:16 PM 43.0092 -88.2947 77° East 525 604 37,000  Level Chicago Center
Sat 05:56:18 PM 43.0422 -88.1017 77° East 526 605 37,000  Level Chicago Center
Sat 05:57:20 PM 43.0817 -87.8692 77° East 527 606 37,000  Level Chicago Center
Sat 05:58:22 PM 43.1147 -87.6781 77° East 524 603 37,000 -435 Level Chicago Center
Sat 05:59:24 PM 43.1458 -87.4850 77° East 523 602 36,100 -976 Descending Chicago Center
Sat 06:00:25 PM 43.1800 -87.2781 77° East 526 605 35,000 -1,024 Descending Chicago Center
Sat 06:01:27 PM 43.2111 -87.0853 77° East 523 602 34,000 -919 Descending Chicago Center
Sat 06:02:29 PM 43.2419 -86.8953 77° East 514 592 33,100 -484 Descending Chicago Center
Sat 06:03:31 PM 43.2722 -86.7019 78° East 516 594 33,000 -48 Descending Chicago Center
Sat 06:04:33 PM 43.3039 -86.5094 77° East 517 595 33,000  Level Chicago Center
Sat 06:05:35 PM 43.3344 -86.3139 78° East 518 596 33,000 -194 Level Chicago Center
Sat 06:06:37 PM 43.3617 -86.1172 79° East 519 597 32,600 -484 Descending Chicago Center
Sat 06:07:39 PM 43.3614 -85.8808 90° East 513 590 32,000 -390 Descending Chicago Center
Sat 06:08:40 PM 43.3317 -85.6847 102° East 517 595 31,800 -1,366 Descending Chicago Center
Sat 06:09:42 PM 43.3336 -85.5011 89° East 479 551 29,200 -3,097 Descending Chicago Center
Sat 06:10:44 PM 43.3861 -85.3406 66° East 464 534 25,400 -2,323 Descending Chicago Center
Sat 06:11:46 PM 43.3558 -85.1581 103° East 493 567 24,400 -968 Descending Chicago Center
Sat 06:12:48 PM 43.2911 -84.9917 118° Southeast 493 567 23,400 -984 Descending Chicago Center
Sat 06:13:48 PM 43.2239 -84.8281 119° Southeast 492 566 22,400 -984 Descending Cleveland Center
Sat 06:14:50 PM 43.1592 -84.6672 119° Southeast 487 560 21,400 -976 Descending Cleveland Center
Sat 06:15:51 PM 43.1142 -84.5019 110° East 465 535 20,400 -1,024 Descending Cleveland Center
Sat 06:16:53 PM 43.0783 -84.3197 105° East 449 517 19,300 -1,258 Descending Cleveland Center
Sat 06:17:55 PM 43.0475 -84.1594 105° East 439 505 17,800 -1,900 Descending Cleveland Center
Sat 06:18:53 PM 42.9922 -83.9933 114° Southeast 447 514 15,500 -2,169 Descending Cleveland Center
Sat 06:19:18 PM 42.9625 -83.9461 131° Southeast 438 504 14,800 -1,569 Descending Cleveland Center
Sat 06:19:58 PM 42.9253 -83.8797 127° Southeast 437 503 13,800 -1,967 Descending Cleveland Center
Sat 06:20:19 PM 42.8889 -83.8208 130° Southeast 420 483 12,800 -1,645 Descending Cleveland Center
Sat 06:21:00 PM 42.8375 -83.7369 130° Southeast 412 474 12,100 -787 Descending Cleveland Center
Sat 06:21:20 PM 42.8031 -83.7169 157° South 397 457 12,000 -97 Descending Cleveland Center
Sat 06:22:02 PM 42.7375 -83.6767 156° South 397 457 12,000  Level Cleveland Center
Sat 06:22:21 PM 42.7031 -83.6567 157° South 378 435 12,000  Level Cleveland Center
Sat 06:23:04 PM 42.6475 -83.6228 156° South 359 413 12,000  Level Cleveland Center
Sat 06:23:22 PM 42.6169 -83.6042 156° South 335 386 12,000  Level Cleveland Center
Sat 06:24:05 PM 42.5636 -83.5725 156° South 338 389 12,000  Level Cleveland Center
Sat 06:24:23 PM 42.5347 -83.5583 160° South 295 339 12,000 -581 Level Cleveland Center
Sat 06:25:07 PM 42.4883 -83.5289 155° Southeast 301 346 11,400 -871 Descending Cleveland Center
Sat 06:25:25 PM 42.4608 -83.5136 158° South 289 333 11,100 -387 Descending Cleveland Center
Sat 06:26:09 PM 42.4131 -83.4842 156° South 289 333 11,000 -98 Descending Cleveland Center
Sat 06:26:26 PM 42.3889 -83.4692 155° Southeast 285 328 11,000  Level Cleveland Center
Sat 06:27:11 PM 42.3386 -83.4597 172° South 278 320 11,000 -393 Level Cleveland Center
Sat 06:27:27 PM 42.3103 -83.4553 173° South 250 288 10,600 -1,180 Descending Cleveland Center
Sat 06:28:12 PM 42.2692 -83.4481 173° South 252 290 9,800 -1,377 Descending Cleveland Center
Sat 06:28:28 PM 42.2419 -83.4428 172° South 247 284 9,200 -1,258 Descending Cleveland Center
Sat 06:29:14 PM 42.2000 -83.4706 206° Southwest 228 262 8,500 -787 Descending Cleveland Center
Sat 06:29:29 PM 42.1889 -83.4803 213° Southwest 200 230 8,400 -484 Descending Cleveland Center
Sat 06:30:16 PM 42.1558 -83.5097 213° Southwest 195 224 8,000 -393 Descending Cleveland Center
Sat 06:30:30 PM 42.1478 -83.5222 229° Southwest 173 199 8,000  Level Cleveland Center
Sat 06:31:17 PM 42.1203 -83.5553 222° Southwest 178 205 8,000  Level Cleveland Center
Sat 06:31:31 PM 42.1086 -83.5672 217° Southwest 180 207 8,000 -97 Level Cleveland Center
Sat 06:32:19 PM 42.0881 -83.5928 223° Southwest 178 205 7,900 -618 Descending Cleveland Center
Sat 06:32:39 PM 42.0689 -83.6178 224° Southwest 175 201 7,300 -1,065 Descending Cleveland Center
Sat 06:33:21 PM 42.0439 -83.6483 222° Southwest 179 206 6,800 -689 Descending Cleveland Center
Sat 06:33:40 PM 42.0317 -83.6631 222° Southwest 180 207 6,600 -581 Descending Cleveland Center
Sat 06:34:23 PM 42.0017 -83.6742 195° South 197 227 6,200 -393 Descending Cleveland Center
Sat 06:34:41 PM 41.9883 -83.6539 131° Southeast 225 259 6,200 -98 Level Cleveland Center
Sat 06:35:24 PM 41.9736 -83.6058 112° Southeast 212 244 6,100 -90 Descending Cleveland Center
Sat 06:35:48 PM 41.9700 -83.5697 98° East 201 231 6,100 -290 Level Cleveland Center
Sat 06:36:26 PM 41.9875 -83.5419 50° Northeast 204 235 5,800 -764 Descending Cleveland Center
Sat 06:36:43 PM 42.0047 -83.5269 33° Northeast 189 217 5,400 -968 Descending Cleveland Center
Sat 06:37:28 PM 42.0322 -83.5081 27° Northeast 191 220 4,800 -1,000 Descending Cleveland Center
Sat 06:37:43 PM 42.0514 -83.4944 28° Northeast 179 206 4,400 -984 Descending Cleveland Center
Sat 06:38:29 PM 42.0767 -83.4767 28° Northeast 184 212 3,800 -1,082 Descending Cleveland Center
Sat 06:38:44 PM 42.0936 -83.4639 29° Northeast 176 203 3,300 -1,258 Descending Cleveland Center
Sat 06:39:31 PM 42.1269 -83.4394 29° Northeast 179 206 2,500 -1,082 Descending Cleveland Center
Sat 06:39:45 PM 42.1358 -83.4333 27° Northeast 155 178 2,200 -870 Descending Cleveland Center
Sat 06:40:40 PM 42.1669 -83.4122 27° Northeast 130 150 1,500 -661 Descending Cleveland Center
Sat 06:41:34 PM 42.1917 -83.3917 32° Northeast 137 158 1,000 -627 Descending Cleveland Center
Sat 06:41:47 PM 42.2003 -83.3861 26° Northeast 126 145 800 -194 Descending Cleveland Center
Sat 06:42:36 PM 42.2217 -83.3692 30° Northeast 135 155 800  Level Cleveland Center

Login

Don't have an account? Register now (free) for customized features, flight alerts, and more!